Willard, KY (41181)

12:34 PM EST on February 10, 2016 (GMT -0500)
Green | | Change Station
CLOSE
Current Station
Personal Weather Station
Location: Olive Hill, KY
Elevation: 883 ft
Nearby Weather Stations
Active Advisory: Winter Weather Advisory

Elev 883 ft 38.19 °N, 83.08 °W | Updated 3 minutes ago

Overcast
Overcast
28.0 °F
Feels Like 28 °F
N
0.0
Wind Variable Wind from North
Gusts 0.0 mph

Today
High -- | Low -- °F
--% Chance of Precip.
Yesterday
High -- | Low -- °F
Precip. -- in
Pressure 30.03 in
Visibility 10.0 miles
Clouds Mostly Cloudy 3400 ft
Overcast 4100 ft
Windchill 28 °F
Dew Point -5 °F
Humidity 23%
Rainfall Not available.
Snow Depth Not available.
7:28 AM 6:04 PM
Waxing Crescent, 6% visible
METAR KHTS 101651Z 26007G17KT 240V310 10SM -SN BKN034 OVC041 M06/M13 A3000 RMK AO2 SLP168 P0000 T10611133
Pressure 30.03 in
Visibility 10.0 miles
Clouds Mostly Cloudy 3400 ft
Overcast 4100 ft
Windchill 28 °F
Dew Point -5 °F
Humidity 23%
Rainfall Not available.
Snow Depth Not available.
7:28 AM 6:04 PM
Waxing Crescent, 6% visible
METAR KHTS 101651Z 26007G17KT 240V310 10SM -SN BKN034 OVC041 M06/M13 A3000 RMK AO2 SLP168 P0000 T10611133

10-Day Weather Forecast

Almanac

Astronomy

Feb. 10, 2016 Rise Set
Actual Time
Civil Twilight
Nautical Twilight
Astronomical Twilight
Moon
Length of Visible Light
Length of Day
Tomorrow will be .
, % of the Moon is Illuminated

Today's Extremes

State Highs State Lows

Community

WunderPhotos

Upload Photos

1,891,898 photos uploaded!

WunderBlog® & News

Nearby

Air Quality

  Air Quality AQ Index Pollutant
Not available.

Snow Depth

Station Depth Elevation

Earthquake Activity

City Distance Mag. Time & Date
Minimum magnitude displayed is 2.5.

Coastal Water Temperatures

Place Temperature

Stations

Nearby Weather Stations

Station Location Temp. Windchill Dew Point Humidity Wind Precip. Elev Updated Type
                   

Watches & Warnings

Winter Weather Advisory
Issued: 4:38 AM EST Feb. 10, 2016 – National Weather Service

... Winter Weather Advisory remains in effect until 1 PM EST this
afternoon...

* hazard types... snow showers of varying intensity.

* Total snow accumulations from Monday night into this
afternoon... 2 to 4 inches.

* Temperatures... around 20.

* Impacts... travel may be difficult at times. Visibilities will
be limited at times.

Precautionary/preparedness actions...

A Winter Weather Advisory for snow means that periods of snow
will cause primarily travel difficulties. Be prepared for snow
covered roads and limited visibilities... and use caution while
driving.

With the colder weather... have your vehicle equipped with
emergency supplies.



Trm